Time;durP1;ratioP1;P1;durP2;ratioP2;P2;SDS_P1;SDS_P2;PMS_P1;PMS_P2;Temp;Humidity;BMP_temperature;BMP_pressure;BME280_temperature;BME280_humidity;BME280_pressure;Samples;Min_cycle;Max_cycle;Signal;HPM_P1;HPM_P2
2022/12/24 00:02:09;;;;;;;43.30;5.20;;;;;;;17.44;51.59;100616.22;5129827;27;20266;-69
2022/12/24 00:04:34;;;;;;;29.17;4.80;;;;;;;16.05;57.15;100626.88;5112153;27;20039;-69
2022/12/24 00:06:59;;;;;;;40.23;7.03;;;;;;;17.11;54.45;100629.91;5112165;27;20514;-69
2022/12/24 00:09:25;;;;;;;33.60;5.33;;;;;;;16.47;54.84;100621.84;5111736;27;20068;-69
2022/12/24 00:11:50;;;;;;;55.70;6.53;;;;;;;16.08;55.89;100636.47;5114257;27;20030;-69
2022/12/24 00:14:16;;;;;;;28.83;4.20;;;;;;;16.17;55.53;100638.78;5132766;27;20019;-69
2022/12/24 00:16:41;;;;;;;29.60;4.43;;;;;;;16.57;54.63;100628.50;5129710;27;20284;-69
2022/12/24 00:19:06;;;;;;;40.67;5.10;;;;;;;15.67;57.41;100650.13;5111874;27;20039;-69
2022/12/24 00:21:32;;;;;;;36.30;5.23;;;;;;;15.52;58.77;100653.28;5131711;27;20050;-69
2022/12/24 00:23:57;;;;;;;34.10;4.03;;;;;;;16.64;54.56;100640.53;5112664;27;20031;-69
2022/12/24 00:26:23;;;;;;;29.40;5.47;;;;;;;17.80;50.58;100649.97;5114063;27;20030;-69
2022/12/24 00:28:48;;;;;;;37.10;4.53;;;;;;;16.76;53.78;100647.09;5131491;27;20359;-69
2022/12/24 00:31:16;;;;;;;29.37;4.63;;;;;;;17.06;52.36;100642.47;5130786;27;20030;-69
2022/12/24 00:33:44;;;;;;;35.07;7.47;;;;;;;16.69;53.50;100643.88;5112824;27;20034;-69
2022/12/24 00:36:09;;;;;;;42.13;5.57;;;;;;;16.82;52.93;100644.25;5113990;27;20553;-69
2022/12/24 00:38:34;;;;;;;33.33;5.10;;;;;;;17.24;52.20;100651.41;5128897;27;20038;-69
2022/12/24 00:41:05;;;;;;;45.40;5.00;;;;;;;17.49;50.99;100649.53;5132424;27;20458;-69
2022/12/24 00:43:31;;;;;;;49.03;7.10;;;;;;;16.52;53.57;100664.75;5129859;27;20023;-69
2022/12/24 00:45:58;;;;;;;33.03;5.07;;;;;;;15.98;54.38;100674.59;5114079;27;20034;-69
2022/12/24 00:48:23;;;;;;;34.30;5.70;;;;;;;16.74;53.32;100663.00;5131552;27;20035;-69
2022/12/24 00:50:49;;;;;;;41.77;5.00;;;;;;;15.34;57.51;100679.31;5112677;28;20023;-69
2022/12/24 00:53:16;;;;;;;27.30;3.80;;;;;;;16.59;54.04;100684.69;5130000;27;20390;-69
2022/12/24 00:55:41;;;;;;;45.80;5.50;;;;;;;17.03;51.92;100668.97;5132247;27;20030;-69
2022/12/24 00:58:07;;;;;;;37.07;4.20;;;;;;;16.84;52.49;100684.63;5130634;27;20401;-69
2022/12/24 01:00:32;;;;;;;41.90;5.57;;;;;;;16.23;54.45;100690.41;5130723;27;20365;-69
2022/12/24 01:02:58;;;;;;;41.23;5.00;;;;;;;16.35;54.16;100684.69;5112228;28;20445;-69
2022/12/24 01:05:23;;;;;;;44.70;5.67;;;;;;;16.26;54.48;100687.66;5112946;28;20041;-69
2022/12/24 01:07:48;;;;;;;37.47;4.90;;;;;;;17.34;51.86;100688.88;5112510;28;20041;-69
2022/12/24 01:10:17;;;;;;;36.63;4.47;;;;;;;16.67;52.94;100695.84;5130903;27;20038;-69
2022/12/24 01:12:44;;;;;;;31.57;4.30;;;;;;;16.95;51.91;100708.00;5130477;28;20407;-69
2022/12/24 01:15:11;;;;;;;40.83;5.17;;;;;;;15.89;55.53;100720.59;5110953;28;20054;-72
2022/12/24 01:17:37;;;;;;;31.63;4.30;;;;;;;16.62;53.88;100703.94;5113247;28;20054;-69
2022/12/24 01:20:05;;;;;;;31.63;5.37;;;;;;;15.99;55.58;100716.75;5128866;27;20042;-69
2022/12/24 01:22:30;;;;;;;38.40;5.90;;;;;;;16.79;52.68;100713.84;5110961;28;20033;-69
2022/12/24 01:24:56;;;;;;;42.50;4.80;;;;;;;16.87;53.09;100717.97;5111813;28;20031;-71
2022/12/24 01:27:21;;;;;;;41.87;4.57;;;;;;;15.98;55.10;100730.81;5129832;28;20027;-69
2022/12/24 01:29:47;;;;;;;26.87;4.03;;;;;;;15.93;56.05;100735.38;5113324;28;20121;-69
2022/12/24 01:32:12;;;;;;;36.47;4.77;;;;;;;17.04;52.46;100723.50;5111317;28;20056;-70
2022/12/24 01:34:37;;;;;;;51.60;5.30;;;;;;;16.59;53.71;100735.69;5130605;28;20070;-69
2022/12/24 01:37:03;;;;;;;38.37;4.77;;;;;;;16.49;54.00;100730.81;5131925;28;20047;-69
2022/12/24 01:39:28;;;;;;;40.93;5.50;;;;;;;16.38;54.54;100737.34;5112433;28;20023;-69
2022/12/24 01:44:41;;;;;;;39.27;4.70;;;;;;;15.66;56.65;100756.44;5131009;28;20050;-69
2022/12/24 01:47:15;;;;;;;44.80;6.17;;;;;;;16.45;53.60;100754.66;5111468;28;20023;-69
2022/12/24 01:49:46;;;;;;;40.37;5.33;;;;;;;16.75;53.31;100749.19;5129993;28;20474;-69
2022/12/24 01:52:18;;;;;;;39.83;4.37;;;;;;;17.02;52.46;100751.75;5112254;28;20110;-69
2022/12/24 01:54:52;;;;;;;31.70;5.53;;;;;;;16.19;55.40;100750.31;5128063;28;20064;-69
2022/12/24 01:57:21;;;;;;;45.87;4.73;;;;;;;16.70;54.40;100759.03;5111049;28;20122;-69
2022/12/24 01:59:50;;;;;;;32.57;3.87;;;;;;;17.17;52.07;100768.75;5131289;28;20027;-69
2022/12/24 02:02:16;;;;;;;39.67;5.50;;;;;;;15.50;55.90;100773.66;5111086;28;20382;-69
2022/12/24 02:04:56;;;;;;;26.73;4.40;;;;;;;16.84;53.22;100774.38;5112121;28;20035;-69
2022/12/24 02:07:22;;;;;;;37.93;4.23;;;;;;;17.48;50.48;100774.66;5130532;27;20453;-69
2022/12/24 02:09:52;;;;;;;25.03;4.13;;;;;;;16.40;53.52;100775.09;5129724;28;20031;-69
2022/12/24 02:12:18;;;;;;;29.77;4.07;;;;;;;16.86;51.50;100776.97;5112301;27;20031;-69
2022/12/24 02:14:43;;;;;;;20.63;3.67;;;;;;;16.52;53.78;100783.47;5114896;27;20603;-69
2022/12/24 02:17:15;;;;;;;31.07;4.80;;;;;;;17.29;51.00;100784.13;5112752;27;20500;-70
2022/12/24 02:20:09;;;;;;;32.17;3.60;;;;;;;17.38;50.64;100790.88;5113084;28;20035;-70
2022/12/24 02:22:43;;;;;;;32.20;3.90;;;;;;;16.66;51.90;100791.75;5076807;28;20483;-70
2022/12/24 02:25:20;;;;;;;30.60;4.27;;;;;;;17.60;49.98;100790.88;5111643;27;20122;-70
2022/12/24 02:27:59;;;;;;;35.40;6.03;;;;;;;16.90;51.92;100794.47;5114630;27;20484;-70
2022/12/24 02:30:37;;;;;;;25.67;5.17;;;;;;;17.03;52.72;100800.13;5113909;27;20390;-69
2022/12/24 02:33:39;;;;;;;30.07;4.30;;;;;;;17.22;52.02;100790.59;5113842;27;20456;-69
2022/12/24 02:36:16;;;;;;;51.67;4.97;;;;;;;17.52;51.00;100789.47;5100153;27;20031;-71
2022/12/24 02:38:58;;;;;;;38.93;4.07;;;;;;;17.92;49.88;100801.09;5133629;27;20091;-70
2022/12/24 02:42:04;;;;;;;38.73;5.40;;;;;;;17.29;51.05;100793.84;5134577;27;20050;-70
2022/12/24 02:44:14;;;;;;;37.03;5.07;;;;;;;16.30;54.05;100805.31;5134099;27;20453;-70
2022/12/24 02:46:39;;;;;;;38.97;4.80;;;;;;;16.23;55.50;100803.81;5114161;27;20023;-70
2022/12/24 02:49:05;;;;;;;50.70;6.00;;;;;;;17.88;51.35;100802.09;5112231;27;20474;-71
2022/12/24 02:51:31;;;;;;;35.60;6.10;;;;;;;17.40;51.18;100810.13;5114510;27;20027;-70
2022/12/24 02:53:58;;;;;;;42.07;5.80;;;;;;;17.83;50.66;100810.22;5115045;27;20798;-70
2022/12/24 02:56:42;;;;;;;56.27;6.80;;;;;;;17.57;51.74;100811.25;5115612;27;20164;-71
2022/12/24 02:59:28;;;;;;;54.53;5.67;;;;;;;17.33;52.82;100819.22;5131351;27;20031;-70
2022/12/24 03:02:38;;;;;;;43.00;6.50;;;;;;;17.98;51.60;100816.69;5134315;27;20466;-70
2022/12/24 03:05:17;;;;;;;52.80;6.00;;;;;;;17.69;51.56;100809.91;5029083;28;20072;-70
2022/12/24 03:08:10;;;;;;;38.00;5.50;;;;;;;17.35;53.86;100817.41;5112669;27;20482;-70
2022/12/24 03:10:56;;;;;;;55.83;7.28;;;;;;;17.59;53.75;100809.44;5102746;27;20038;-70
2022/12/24 03:13:23;;;;;;;56.17;7.63;;;;;;;17.64;52.85;100818.03;5114485;27;20026;-70
2022/12/24 03:15:50;;;;;;;58.23;8.23;;;;;;;17.43;54.42;100831.19;5133947;27;20027;-70
2022/12/24 03:18:25;;;;;;;48.63;6.10;;;;;;;17.84;53.53;100829.59;5130413;27;20064;-70
2022/12/24 03:21:14;;;;;;;47.93;5.53;;;;;;;18.74;50.49;100822.28;5133895;27;20027;-70
2022/12/24 03:23:40;;;;;;;48.20;5.57;;;;;;;18.76;50.41;100825.72;5094779;28;20031;-70
2022/12/24 03:26:09;;;;;;;41.03;5.77;;;;;;;17.72;53.69;100842.41;5094409;28;20035;-70
2022/12/24 03:28:38;;;;;;;44.53;6.87;;;;;;;17.57;54.01;100838.56;5102380;27;20023;-70
2022/12/24 03:31:05;;;;;;;45.60;5.60;;;;;;;17.63;53.02;100837.47;5110122;27;20023;-70
2022/12/24 03:33:30;;;;;;;45.03;6.03;;;;;;;18.48;51.13;100834.03;5112269;27;20023;-70
2022/12/24 03:35:56;;;;;;;40.30;5.53;;;;;;;17.50;53.29;100841.50;5132515;27;20027;-70
2022/12/24 03:38:22;;;;;;;35.37;5.83;;;;;;;18.49;51.98;100835.72;5115102;27;20068;-70
2022/12/24 03:40:47;;;;;;;55.70;6.03;;;;;;;17.49;53.97;100839.75;5111371;27;20030;-70
2022/12/24 03:43:12;;;;;;;38.13;5.60;;;;;;;17.87;53.06;100834.75;5133533;27;20021;-70
2022/12/24 03:45:38;;;;;;;43.03;5.53;;;;;;;17.22;55.17;100832.00;5114609;27;20022;-70
2022/12/24 03:48:03;;;;;;;42.97;5.83;;;;;;;17.52;54.03;100840.53;5131165;27;20476;-70
2022/12/24 03:50:29;;;;;;;53.20;5.00;;;;;;;17.61;54.16;100840.16;5114343;27;20122;-70
2022/12/24 03:52:55;;;;;;;39.77;6.37;;;;;;;17.78;53.62;100842.13;5111074;27;20031;-70
2022/12/24 03:55:20;;;;;;;43.53;6.87;;;;;;;17.93;51.23;100845.13;5111529;27;20027;-71
2022/12/24 03:57:46;;;;;;;33.30;4.60;;;;;;;18.10;52.50;100847.91;5114771;27;20110;-70
2022/12/24 04:00:12;;;;;;;42.40;5.40;;;;;;;18.79;50.22;100844.13;5114535;27;20019;-70
2022/12/24 04:02:37;;;;;;;39.97;5.90;;;;;;;17.61;53.21;100850.75;5109434;27;20478;-70
2022/12/24 04:05:03;;;;;;;47.73;5.03;;;;;;;17.54;54.46;100849.22;5133083;27;20026;-70
2022/12/24 04:07:30;;;;;;;41.37;5.10;;;;;;;18.10;51.89;100837.34;5112678;27;20019;-70
2022/12/24 04:09:56;;;;;;;36.77;6.27;;;;;;;18.58;51.07;100847.72;5131839;27;20110;-71
2022/12/24 04:12:21;;;;;;;42.77;5.10;;;;;;;18.29;51.43;100857.75;5110448;27;20864;-70
2022/12/24 04:14:46;;;;;;;41.37;5.37;;;;;;;18.41;49.99;100844.00;5131431;27;20023;-70
2022/12/24 04:17:12;;;;;;;35.83;4.87;;;;;;;17.77;53.44;100848.34;5114210;27;20023;-70
2022/12/24 04:19:37;;;;;;;29.27;5.27;;;;;;;18.66;50.05;100850.88;5132031;27;20510;-70
2022/12/24 04:22:02;;;;;;;33.70;5.33;;;;;;;18.84;50.45;100859.81;5129067;27;20022;-71
2022/12/24 04:24:28;;;;;;;38.83;4.53;;;;;;;17.26;54.22;100863.50;5130287;27;20026;-70
2022/12/24 04:26:53;;;;;;;42.40;5.03;;;;;;;18.36;50.49;100869.78;5131828;27;20023;-70
2022/12/24 04:29:19;;;;;;;33.63;5.43;;;;;;;18.45;50.97;100864.13;5112953;27;20035;-70
2022/12/24 04:31:44;;;;;;;35.57;4.67;;;;;;;18.63;50.84;100873.06;5132509;27;20031;-70
2022/12/24 04:34:09;;;;;;;34.67;4.00;;;;;;;18.21;50.81;100857.22;5109708;27;20038;-70
2022/12/24 04:36:35;;;;;;;33.53;4.37;;;;;;;18.10;51.74;100862.94;5109254;27;20114;-70
2022/12/24 04:39:00;;;;;;;33.70;4.80;;;;;;;17.58;52.80;100866.69;5113097;27;20035;-70
2022/12/24 04:41:26;;;;;;;44.00;5.27;;;;;;;17.45;53.31;100874.25;5113861;27;20038;-71
2022/12/24 04:43:53;;;;;;;34.83;6.17;;;;;;;16.86;54.64;100882.56;5112298;27;20573;-71
2022/12/24 04:46:21;;;;;;;31.43;5.03;;;;;;;17.70;52.77;100875.94;5112843;27;20051;-70
2022/12/24 04:48:48;;;;;;;37.40;4.77;;;;;;;18.12;51.99;100879.59;5113037;27;20027;-70
2022/12/24 04:51:15;;;;;;;37.57;6.27;;;;;;;17.37;54.57;100876.31;5112813;27;20118;-71
2022/12/24 04:53:42;;;;;;;42.33;5.10;;;;;;;18.35;51.74;100878.66;5131213;27;20045;-70
2022/12/24 04:56:23;;;;;;;37.07;4.23;;;;;;;17.05;55.35;100893.34;5111858;27;20027;-70
2022/12/24 04:58:49;;;;;;;36.97;5.90;;;;;;;18.06;52.70;100883.34;5110148;28;20023;-71
2022/12/24 05:01:21;;;;;;;42.77;6.60;;;;;;;17.45;54.17;100887.44;5111946;27;20031;-70
2022/12/24 05:03:47;;;;;;;38.53;5.73;;;;;;;17.99;52.70;100879.25;5130693;27;20592;-70
2022/12/24 05:06:15;;;;;;;33.97;5.23;;;;;;;18.16;52.64;100886.47;5130590;27;20030;-71
2022/12/24 05:08:41;;;;;;;55.40;6.60;;;;;;;18.78;50.64;100886.53;5131163;28;20030;-70
2022/12/24 05:11:06;;;;;;;35.27;5.13;;;;;;;17.24;54.32;100898.81;5131093;28;20015;-70
2022/12/24 05:13:32;;;;;;;45.93;5.33;;;;;;;17.79;53.16;100896.72;5112338;28;20029;-70
2022/12/24 05:15:58;;;;;;;40.17;5.63;;;;;;;17.43;54.22;100893.72;5129230;28;20509;-70
2022/12/24 05:18:24;;;;;;;29.20;4.90;;;;;;;17.76;53.58;100901.25;5127560;27;20068;-70
2022/12/24 05:20:49;;;;;;;55.77;6.20;;;;;;;18.83;50.64;100900.44;5112750;27;20030;-71
2022/12/24 05:28:45;;;;;;;41.63;6.77;;;;;;;17.94;53.77;100899.72;5118095;28;20046;-70
2022/12/24 05:31:11;;;;;;;38.57;5.37;;;;;;;17.53;54.67;100894.22;5111603;28;20106;-70
2022/12/24 05:33:36;;;;;;;40.57;4.90;;;;;;;18.45;51.52;100893.22;5112428;28;20227;-71
2022/12/24 05:36:02;;;;;;;50.97;5.67;;;;;;;18.16;52.64;100888.28;5112430;28;20788;-70
2022/12/24 05:38:27;;;;;;;47.90;5.33;;;;;;;18.37;50.35;100886.50;5111327;28;20105;-71
2022/12/24 05:40:53;;;;;;;43.97;5.67;;;;;;;18.40;51.97;100887.25;5130375;27;20027;-71
2022/12/24 05:43:18;;;;;;;44.70;5.53;;;;;;;17.22;55.97;100900.66;5113126;28;20371;-71
2022/12/24 05:45:43;;;;;;;47.53;5.67;;;;;;;17.96;52.52;100897.88;5110498;28;20035;-70
2022/12/24 05:48:09;;;;;;;55.70;6.73;;;;;;;17.22;55.44;100916.50;5131698;27;20023;-70
2022/12/24 05:50:35;;;;;;;44.37;5.90;;;;;;;17.53;55.08;100918.00;5117063;27;20019;-71
2022/12/24 05:53:00;;;;;;;43.70;6.40;;;;;;;17.36;54.91;100922.13;5116235;27;20031;-70
2022/12/24 05:55:26;;;;;;;50.07;6.93;;;;;;;17.59;54.48;100925.72;5135540;27;20031;-71
2022/12/24 05:57:51;;;;;;;49.93;7.10;;;;;;;17.77;54.36;100924.16;5134494;27;20027;-70
2022/12/24 06:00:17;;;;;;;54.80;9.30;;;;;;;18.25;52.78;100917.84;5113639;27;20023;-70
2022/12/24 06:02:42;;;;;;;48.20;5.87;;;;;;;17.75;52.81;100932.13;5116779;27;20039;-70
2022/12/24 06:05:08;;;;;;;47.70;7.23;;;;;;;17.18;55.70;100934.25;5116903;27;20462;-71
2022/12/24 06:07:34;;;;;;;57.93;6.20;;;;;;;18.25;52.15;100931.09;5114932;27;20031;-70
2022/12/24 06:09:59;;;;;;;48.53;8.37;;;;;;;17.56;54.09;100941.69;5115661;27;20122;-71
2022/12/24 06:12:24;;;;;;;51.17;6.40;;;;;;;16.99;55.85;100944.59;5134610;27;20049;-71
2022/12/24 06:14:50;;;;;;;58.93;7.43;;;;;;;16.90;57.81;100955.50;5115692;27;20019;-71
2022/12/24 06:17:15;;;;;;;40.63;6.93;;;;;;;16.91;56.60;100954.56;5115173;27;20110;-71
2022/12/24 06:19:41;;;;;;;51.20;6.33;;;;;;;17.79;54.55;100965.47;5134197;27;20027;-70
2022/12/24 06:22:06;;;;;;;58.03;7.73;;;;;;;17.53;54.89;100962.94;5132910;27;20030;-71
2022/12/24 06:24:31;;;;;;;59.77;6.53;;;;;;;17.64;54.67;100971.34;5115920;27;20477;-71
2022/12/24 06:26:57;;;;;;;47.17;7.33;;;;;;;18.06;53.48;100957.41;5133419;27;20027;-71
2022/12/24 06:29:22;;;;;;;49.87;6.90;;;;;;;16.37;59.92;100959.81;5113679;27;20091;-70
2022/12/24 06:31:48;;;;;;;57.90;8.13;;;;;;;18.01;53.39;100964.69;5116261;27;20055;-70
2022/12/24 06:34:13;;;;;;;64.93;8.07;;;;;;;17.35;55.35;100973.28;5116216;27;20027;-71
2022/12/24 06:36:38;;;;;;;52.83;6.50;;;;;;;17.54;54.13;100962.00;5113320;27;20470;-70
2022/12/24 06:39:04;;;;;;;59.77;8.47;;;;;;;17.68;53.80;100970.31;5133049;27;20027;-70
2022/12/24 06:41:29;;;;;;;50.53;6.97;;;;;;;17.59;53.39;100970.66;5114699;27;20058;-70
2022/12/24 06:43:55;;;;;;;56.13;8.10;;;;;;;17.11;54.71;100967.91;5132468;27;20110;-70
2022/12/24 06:46:20;;;;;;;47.10;6.17;;;;;;;17.04;53.54;100968.22;5131020;27;20031;-71
2022/12/24 06:48:46;;;;;;;57.43;6.60;;;;;;;17.98;52.23;100954.19;5133244;27;20501;-70
2022/12/24 06:51:18;;;;;;;58.53;7.00;;;;;;;17.52;52.72;100962.06;5114055;27;20421;-70
2022/12/24 06:53:43;;;;;;;48.37;6.60;;;;;;;17.02;54.61;100962.09;5115748;27;20019;-71
2022/12/24 06:56:11;;;;;;;45.67;6.87;;;;;;;18.30;50.80;100965.31;5113478;27;20397;-70
2022/12/24 06:58:38;;;;;;;49.33;6.70;;;;;;;17.13;53.09;100994.28;5132995;27;20038;-70
2022/12/24 07:01:05;;;;;;;54.90;6.23;;;;;;;16.90;53.71;100979.25;5115053;27;20023;-70
2022/12/24 07:03:31;;;;;;;49.13;6.13;;;;;;;17.15;54.21;100984.53;5132227;27;20503;-71
2022/12/24 07:05:56;;;;;;;54.27;6.97;;;;;;;17.56;52.09;100978.69;5128702;27;20082;-71
2022/12/24 07:08:22;;;;;;;48.30;6.40;;;;;;;16.98;52.92;100992.16;5115422;27;20023;-71
2022/12/24 07:10:49;;;;;;;65.03;6.27;;;;;;;16.74;55.62;100985.00;5112395;27;20023;-71
2022/12/24 07:13:15;;;;;;;61.73;8.20;;;;;;;17.35;52.94;100994.41;5112347;27;20044;-71
2022/12/24 07:15:40;;;;;;;45.93;6.70;;;;;;;17.48;53.51;100996.63;5110394;27;20081;-71
2022/12/24 07:18:06;;;;;;;58.60;5.90;;;;;;;17.31;53.20;100990.16;5132891;27;20482;-71
2022/12/24 07:20:31;;;;;;;45.60;6.47;;;;;;;17.13;53.11;100989.88;5113616;27;20136;-71
2022/12/24 07:22:57;;;;;;;57.23;6.23;;;;;;;17.59;52.88;101005.00;5114694;27;20065;-71
2022/12/24 07:25:22;;;;;;;62.77;7.07;;;;;;;16.88;53.91;101004.78;5131900;27;20080;-71
2022/12/24 07:27:47;;;;;;;63.93;8.30;;;;;;;17.87;52.46;101006.59;5130579;27;20055;-71
2022/12/24 07:30:13;;;;;;;58.13;6.57;;;;;;;17.38;52.63;101023.34;5113821;27;20466;-71
2022/12/24 07:32:38;;;;;;;53.93;6.97;;;;;;;17.53;52.89;101021.06;5132732;27;20026;-71
2022/12/24 07:35:04;;;;;;;46.90;7.40;;;;;;;16.57;54.72;101026.94;5131758;27;20050;-71
2022/12/24 07:37:29;;;;;;;50.30;5.77;;;;;;;16.73;55.86;101025.53;5114461;27;20479;-71
2022/12/24 07:39:55;;;;;;;53.13;6.07;;;;;;;17.22;54.98;101027.44;5109269;27;20503;-72
2022/12/24 07:42:20;;;;;;;61.13;7.90;;;;;;;17.40;53.72;101037.34;5113247;27;20034;-71
2022/12/24 07:44:46;;;;;;;59.40;6.23;;;;;;;18.07;51.46;101038.47;5114060;27;20023;-71
2022/12/24 07:47:11;;;;;;;49.70;6.60;;;;;;;17.65;52.79;101041.75;5124240;27;20485;-71
2022/12/24 07:49:37;;;;;;;57.57;6.77;;;;;;;17.26;55.18;101056.34;5113139;27;20065;-71
2022/12/24 07:52:03;;;;;;;56.20;7.73;;;;;;;17.77;53.10;101067.75;5113306;27;20037;-71
2022/12/24 07:54:28;;;;;;;48.63;6.73;;;;;;;18.16;52.25;101060.22;5114521;27;20115;-71
2022/12/24 07:56:54;;;;;;;60.67;6.63;;;;;;;17.14;54.45;101064.69;5111708;27;20106;-72
2022/12/24 07:59:20;;;;;;;48.03;7.70;;;;;;;17.58;53.52;101061.41;5130924;27;20034;-71
2022/12/24 08:01:45;;;;;;;60.50;8.10;;;;;;;17.61;54.50;101082.44;5112432;27;20023;-71
2022/12/24 08:04:11;;;;;;;49.57;6.93;;;;;;;17.04;57.34;101087.03;5110685;27;20092;-71
2022/12/24 08:06:36;;;;;;;66.50;7.73;;;;;;;16.52;58.53;101089.53;5112059;27;20023;-71
2022/12/24 08:09:02;;;;;;;62.17;7.53;;;;;;;17.31;55.42;101079.97;5109254;27;20127;-72
2022/12/24 08:11:27;;;;;;;49.70;6.17;;;;;;;17.80;53.62;101090.56;5124937;27;20027;-71
2022/12/24 08:13:53;;;;;;;60.37;8.23;;;;;;;17.12;55.40;101083.22;5096257;28;20415;-71
2022/12/24 08:16:18;;;;;;;67.13;6.77;;;;;;;17.70;54.75;101090.03;5093861;28;20019;-71
2022/12/24 08:18:43;;;;;;;52.03;7.23;;;;;;;17.42;55.16;101098.94;5102810;27;20030;-71
2022/12/24 08:21:09;;;;;;;43.53;6.53;;;;;;;17.44;55.93;101097.09;5113567;27;20051;-71
2022/12/24 08:23:35;;;;;;;56.90;8.03;;;;;;;16.82;57.62;101102.69;5114046;27;20015;-71
2022/12/24 08:26:01;;;;;;;43.70;7.37;;;;;;;16.78;58.14;101105.41;5113943;27;20019;-72
2022/12/24 08:28:28;;;;;;;46.63;6.30;;;;;;;17.03;57.24;101107.28;5130076;27;20031;-72
2022/12/24 08:30:54;;;;;;;60.57;6.30;;;;;;;17.57;54.22;101108.13;5113978;27;20075;-71
2022/12/24 08:33:19;;;;;;;57.03;7.23;;;;;;;16.90;56.31;101113.91;5132397;27;20031;-71
2022/12/24 08:35:53;;;;;;;47.93;5.67;;;;;;;16.78;57.81;101121.22;5113087;27;20034;-72
2022/12/24 08:38:19;;;;;;;49.70;6.30;;;;;;;17.26;56.10;101132.94;5131445;27;20024;-71
2022/12/24 08:40:47;;;;;;;57.00;6.70;;;;;;;17.92;54.76;101139.56;5112384;27;20034;-71
2022/12/24 08:43:13;;;;;;;48.47;6.57;;;;;;;17.35;57.01;101134.44;5130812;27;20056;-71
2022/12/24 08:45:39;;;;;;;46.70;5.70;;;;;;;17.32;57.14;101137.16;5113693;27;20026;-72
2022/12/24 08:48:05;;;;;;;40.60;6.53;;;;;;;17.96;53.86;101141.16;5128581;27;20359;-71
2022/12/24 08:50:31;;;;;;;59.40;6.20;;;;;;;17.81;55.04;101148.69;5107314;27;20029;-71
2022/12/24 08:52:56;;;;;;;46.47;6.50;;;;;;;18.52;52.73;101149.69;5127711;27;20558;-71
2022/12/24 08:55:22;;;;;;;34.73;6.07;;;;;;;18.27;52.97;101155.91;5130121;27;20023;-71
2022/12/24 08:57:47;;;;;;;41.13;6.13;;;;;;;17.97;54.45;101164.91;5128642;27;20026;-71
2022/12/24 09:00:13;;;;;;;52.10;6.10;;;;;;;18.17;53.24;101170.41;5112574;28;20102;-71
2022/12/24 09:02:39;;;;;;;41.13;5.27;;;;;;;18.52;51.52;101177.03;5112610;28;20452;-71
2022/12/24 09:05:04;;;;;;;36.60;6.33;;;;;;;18.23;52.11;101171.03;5112900;28;20044;-71
2022/12/24 09:07:30;;;;;;;41.33;6.90;;;;;;;18.00;53.51;101169.22;5112195;28;20397;-71
2022/12/24 09:09:55;;;;;;;40.23;5.47;;;;;;;18.34;52.23;101172.41;5112114;28;20395;-71
2022/12/24 09:12:20;;;;;;;38.23;5.93;;;;;;;18.03;53.00;101174.41;5111561;28;20016;-71
2022/12/24 09:14:46;;;;;;;35.57;4.60;;;;;;;17.91;53.46;101174.81;5130027;27;20030;-71
2022/12/24 09:17:11;;;;;;;38.17;5.53;;;;;;;18.33;51.66;101176.84;5130288;28;20586;-71
2022/12/24 09:19:37;;;;;;;40.23;5.93;;;;;;;17.54;54.22;101181.34;5132182;28;20033;-71
2022/12/24 09:22:02;;;;;;;39.00;5.23;;;;;;;17.30;53.60;101183.91;5108595;27;20155;-71
2022/12/24 09:24:27;;;;;;;43.07;5.13;;;;;;;18.16;51.56;101193.31;5122584;27;20023;-71
2022/12/24 09:26:53;;;;;;;40.83;5.77;;;;;;;18.81;50.46;101205.03;5097092;28;20055;-71
2022/12/24 09:29:18;;;;;;;41.93;6.40;;;;;;;18.40;51.44;101210.09;5130944;27;20543;-71
2022/12/24 09:31:44;;;;;;;38.80;5.37;;;;;;;18.48;51.16;101221.28;5111930;27;20023;-71
2022/12/24 09:34:09;;;;;;;44.90;5.63;;;;;;;18.27;50.95;101215.00;5112280;27;20019;-71
2022/12/24 09:36:35;;;;;;;53.47;6.47;;;;;;;18.53;51.09;101214.94;5113396;27;20068;-71
2022/12/24 09:39:00;;;;;;;38.73;5.20;;;;;;;19.46;48.80;101207.78;5111422;27;20023;-71
2022/12/24 09:41:45;;;;;;;38.70;4.87;;;;;;;18.95;49.65;101211.63;5130943;27;20023;-72
2022/12/24 09:44:35;;;;;;;25.37;4.67;;;;;;;17.68;52.49;101205.56;5116449;27;20485;-71
2022/12/24 09:47:07;;;;;;;39.90;6.07;;;;;;;19.26;48.76;101215.69;5107035;27;20496;-70
2022/12/24 09:49:43;;;;;;;38.58;5.43;;;;;;;20.33;46.01;101215.59;5131913;27;20516;-71
2022/12/24 09:52:13;;;;;;;45.70;5.73;;;;;;;18.80;49.47;101228.94;5129290;27;20391;-71
2022/12/24 09:54:50;;;;;;;36.63;4.53;;;;;;;19.67;47.59;101215.75;5112493;27;20394;-71
2022/12/24 09:57:31;;;;;;;44.57;5.73;;;;;;;18.09;50.02;101232.38;5115210;27;20030;-71
2022/12/24 09:59:56;;;;;;;45.97;5.77;;;;;;;19.45;47.71;101221.09;5115440;27;20038;-71
2022/12/24 10:02:22;;;;;;;42.33;6.30;;;;;;;18.88;49.49;101239.28;5112349;27;20031;-71
2022/12/24 10:04:48;;;;;;;39.57;5.47;;;;;;;18.62;49.95;101241.09;5114803;27;20041;-71
2022/12/24 10:07:28;;;;;;;40.60;5.10;;;;;;;19.40;47.86;101238.97;5115871;27;20030;-71
2022/12/24 10:10:03;;;;;;;38.13;5.40;;;;;;;19.34;47.49;101240.09;5105031;27;20030;-71
2022/12/24 10:12:39;;;;;;;42.83;6.30;;;;;;;19.47;47.30;101246.63;5115221;27;20039;-71
2022/12/24 10:15:20;;;;;;;41.47;5.60;;;;;;;19.16;48.82;101241.69;5114610;27;20027;-71
2022/12/24 10:18:25;;;;;;;23.40;4.60;;;;;;;18.68;48.90;101246.13;5114352;27;20463;-71
2022/12/24 10:21:14;;;;;;;41.23;4.90;;;;;;;19.30;48.30;101249.09;5113331;27;20486;-71
2022/12/24 10:23:48;;;;;;;39.10;5.30;;;;;;;19.16;47.31;101241.69;5119664;27;20087;-71
2022/12/24 10:26:33;;;;;;;36.60;4.23;;;;;;;18.57;48.77;101251.81;5129922;27;20039;-71
2022/12/24 10:29:14;;;;;;;28.30;3.90;;;;;;;18.45;48.68;101250.50;5131177;27;20375;-71
2022/12/24 10:31:53;;;;;;;36.70;4.60;;;;;;;17.34;51.53;101254.22;5108532;27;20035;-71
2022/12/24 10:34:27;;;;;;;35.33;4.10;;;;;;;18.44;48.04;101254.06;5106356;27;20034;-71
2022/12/24 10:36:52;;;;;;;37.00;5.33;;;;;;;18.82;48.26;101248.25;5131766;27;20394;-71
2022/12/24 10:39:21;;;;;;;30.57;4.40;;;;;;;18.73;47.58;101249.47;5113857;27;20023;-71
2022/12/24 10:41:52;;;;;;;31.97;5.63;;;;;;;19.02;47.44;101250.19;5112559;27;20045;-71
2022/12/24 10:44:22;;;;;;;32.97;6.30;;;;;;;17.88;49.67;101259.53;5116424;27;20023;-71
2022/12/24 10:46:48;;;;;;;23.53;4.37;;;;;;;18.82;48.24;101261.50;5115160;27;20031;-71
2022/12/24 10:49:15;;;;;;;31.53;4.10;;;;;;;17.62;49.71;101271.84;5113303;27;20424;-71
2022/12/24 10:51:53;;;;;;;34.83;5.43;;;;;;;18.54;48.91;101269.63;5134544;27;20501;-71
2022/12/24 10:54:21;;;;;;;44.10;4.50;;;;;;;19.03;47.29;101262.50;5115820;27;20023;-71
2022/12/24 10:56:51;;;;;;;32.83;4.67;;;;;;;17.72;50.70;101265.34;5115022;27;20114;-71
2022/12/24 10:59:29;;;;;;;36.87;5.43;;;;;;;18.26;49.56;101262.69;5113903;27;20084;-71
2022/12/24 11:01:57;;;;;;;22.97;3.97;;;;;;;18.04;50.51;101265.19;5109368;27;20047;-71
2022/12/24 11:04:28;;;;;;;39.20;4.30;;;;;;;18.21;49.88;101262.81;5112637;27;20047;-71
2022/12/24 11:06:55;;;;;;;26.23;3.60;;;;;;;18.61;48.44;101271.97;5114915;27;20046;-70
2022/12/24 11:09:26;;;;;;;27.67;4.53;;;;;;;19.08;47.28;101265.84;5125447;27;20473;-71
2022/12/24 11:11:52;;;;;;;31.13;4.57;;;;;;;17.62;50.97;101274.47;5128524;27;20031;-71
2022/12/24 11:14:20;;;;;;;37.60;5.47;;;;;;;19.27;47.74;101273.06;5111051;27;20034;-71
2022/12/24 11:16:55;;;;;;;27.13;5.20;;;;;;;17.92;49.61;101266.47;5112246;27;20070;-72
2022/12/24 11:19:30;;;;;;;36.70;5.40;;;;;;;17.55;50.54;101270.31;5132767;27;20029;-71
2022/12/24 11:22:03;;;;;;;35.90;5.03;;;;;;;18.92;46.97;101270.88;5113286;27;20117;-69
2022/12/24 11:24:32;;;;;;;37.42;4.47;;;;;;;18.31;48.91;101269.53;5114563;27;20027;-69
2022/12/24 11:27:29;;;;;;;29.57;4.67;;;;;;;19.58;46.29;101271.84;5115310;27;20034;-69
2022/12/24 11:30:30;;;;;;;22.60;4.13;;;;;;;18.18;49.18;101273.50;5130313;27;20026;-69
2022/12/24 11:33:02;;;;;;;43.10;5.60;;;;;;;18.96;47.55;101276.91;5113832;27;20027;-69